sensor_id;sensor_type;location;lat;lon;timestamp;P1;durP1;ratioP1;P2;durP2;ratioP2
16135;SDS011;8173;48.354;9.248;2023-03-23T00:02:01;0.60;;;0.60;;
16135;SDS011;8173;48.354;9.248;2023-03-23T00:04:28;1.55;;;1.40;;
16135;SDS011;8173;48.354;9.248;2023-03-23T00:06:55;0.70;;;0.70;;
16135;SDS011;8173;48.354;9.248;2023-03-23T00:09:23;0.65;;;0.65;;
16135;SDS011;8173;48.354;9.248;2023-03-23T00:11:50;0.70;;;0.70;;
16135;SDS011;8173;48.354;9.248;2023-03-23T00:14:21;1.65;;;1.23;;
16135;SDS011;8173;48.354;9.248;2023-03-23T00:16:49;2.50;;;2.20;;
16135;SDS011;8173;48.354;9.248;2023-03-23T00:19:16;0.60;;;0.60;;
16135;SDS011;8173;48.354;9.248;2023-03-23T00:21:44;1.15;;;1.05;;
16135;SDS011;8173;48.354;9.248;2023-03-23T00:24:11;0.93;;;0.93;;
16135;SDS011;8173;48.354;9.248;2023-03-23T00:26:43;0.60;;;0.60;;
16135;SDS011;8173;48.354;9.248;2023-03-23T00:29:12;0.60;;;0.60;;
16135;SDS011;8173;48.354;9.248;2023-03-23T00:31:40;0.70;;;0.70;;
16135;SDS011;8173;48.354;9.248;2023-03-23T00:34:12;0.70;;;0.70;;
16135;SDS011;8173;48.354;9.248;2023-03-23T00:36:44;0.68;;;0.68;;
16135;SDS011;8173;48.354;9.248;2023-03-23T00:39:12;0.60;;;0.60;;
16135;SDS011;8173;48.354;9.248;2023-03-23T00:41:42;0.70;;;0.70;;
16135;SDS011;8173;48.354;9.248;2023-03-23T00:44:10;0.70;;;0.70;;
16135;SDS011;8173;48.354;9.248;2023-03-23T00:46:42;1.15;;;0.90;;
16135;SDS011;8173;48.354;9.248;2023-03-23T00:49:11;0.50;;;0.50;;
16135;SDS011;8173;48.354;9.248;2023-03-23T00:51:38;0.60;;;0.60;;
16135;SDS011;8173;48.354;9.248;2023-03-23T00:54:05;0.70;;;0.70;;
16135;SDS011;8173;48.354;9.248;2023-03-23T00:56:32;0.60;;;0.60;;
16135;SDS011;8173;48.354;9.248;2023-03-23T00:59:01;0.80;;;0.80;;
16135;SDS011;8173;48.354;9.248;2023-03-23T01:01:28;1.60;;;1.38;;
16135;SDS011;8173;48.354;9.248;2023-03-23T01:03:55;0.70;;;0.70;;
16135;SDS011;8173;48.354;9.248;2023-03-23T01:06:26;0.70;;;0.70;;
16135;SDS011;8173;48.354;9.248;2023-03-23T01:08:55;0.90;;;0.90;;
16135;SDS011;8173;48.354;9.248;2023-03-23T01:11:22;1.20;;;1.10;;
16135;SDS011;8173;48.354;9.248;2023-03-23T01:13:50;0.63;;;0.63;;
16135;SDS011;8173;48.354;9.248;2023-03-23T01:16:18;1.08;;;1.08;;
16135;SDS011;8173;48.354;9.248;2023-03-23T01:18:45;0.73;;;0.73;;
16135;SDS011;8173;48.354;9.248;2023-03-23T01:21:12;1.00;;;0.70;;
16135;SDS011;8173;48.354;9.248;2023-03-23T01:23:40;1.80;;;1.10;;
16135;SDS011;8173;48.354;9.248;2023-03-23T01:26:08;1.08;;;1.05;;
16135;SDS011;8173;48.354;9.248;2023-03-23T01:28:36;1.27;;;1.23;;
16135;SDS011;8173;48.354;9.248;2023-03-23T01:31:05;1.33;;;1.23;;
16135;SDS011;8173;48.354;9.248;2023-03-23T01:33:34;2.28;;;1.65;;
16135;SDS011;8173;48.354;9.248;2023-03-23T01:36:02;2.28;;;1.88;;
16135;SDS011;8173;48.354;9.248;2023-03-23T01:38:29;3.22;;;1.45;;
16135;SDS011;8173;48.354;9.248;2023-03-23T01:40:56;11.98;;;2.22;;
16135;SDS011;8173;48.354;9.248;2023-03-23T01:43:23;1.15;;;1.05;;
16135;SDS011;8173;48.354;9.248;2023-03-23T01:45:50;1.23;;;1.13;;
16135;SDS011;8173;48.354;9.248;2023-03-23T01:48:18;2.97;;;1.80;;
16135;SDS011;8173;48.354;9.248;2023-03-23T01:50:53;2.85;;;2.00;;
16135;SDS011;8173;48.354;9.248;2023-03-23T01:53:23;1.23;;;1.13;;
16135;SDS011;8173;48.354;9.248;2023-03-23T01:55:55;0.70;;;0.70;;
16135;SDS011;8173;48.354;9.248;2023-03-23T01:58:24;0.77;;;0.77;;
16135;SDS011;8173;48.354;9.248;2023-03-23T02:00:53;2.60;;;1.65;;
16135;SDS011;8173;48.354;9.248;2023-03-23T02:03:22;3.13;;;1.85;;
16135;SDS011;8173;48.354;9.248;2023-03-23T02:05:49;3.80;;;2.38;;
16135;SDS011;8173;48.354;9.248;2023-03-23T02:08:18;2.08;;;1.63;;
16135;SDS011;8173;48.354;9.248;2023-03-23T02:10:45;1.38;;;1.27;;
16135;SDS011;8173;48.354;9.248;2023-03-23T02:13:12;0.60;;;0.60;;
16135;SDS011;8173;48.354;9.248;2023-03-23T02:15:42;0.70;;;0.70;;
16135;SDS011;8173;48.354;9.248;2023-03-23T02:18:16;0.60;;;0.60;;
16135;SDS011;8173;48.354;9.248;2023-03-23T02:21:01;0.70;;;0.70;;
16135;SDS011;8173;48.354;9.248;2023-03-23T02:24:03;0.98;;;0.98;;
16135;SDS011;8173;48.354;9.248;2023-03-23T02:26:59;2.20;;;0.95;;
16135;SDS011;8173;48.354;9.248;2023-03-23T02:29:30;1.27;;;1.17;;
16135;SDS011;8173;48.354;9.248;2023-03-23T02:32:39;1.20;;;1.10;;
16135;SDS011;8173;48.354;9.248;2023-03-23T02:35:22;1.42;;;1.33;;
16135;SDS011;8173;48.354;9.248;2023-03-23T02:37:52;1.23;;;1.13;;
16135;SDS011;8173;48.354;9.248;2023-03-23T02:40:24;1.20;;;1.05;;
16135;SDS011;8173;48.354;9.248;2023-03-23T02:42:55;0.73;;;0.73;;
16135;SDS011;8173;48.354;9.248;2023-03-23T02:45:23;1.20;;;1.05;;
16135;SDS011;8173;48.354;9.248;2023-03-23T02:47:55;1.83;;;1.27;;
16135;SDS011;8173;48.354;9.248;2023-03-23T02:50:24;2.08;;;1.50;;
16135;SDS011;8173;48.354;9.248;2023-03-23T02:52:53;2.38;;;1.92;;
16135;SDS011;8173;48.354;9.248;2023-03-23T02:55:23;2.42;;;2.03;;
16135;SDS011;8173;48.354;9.248;2023-03-23T02:57:51;1.42;;;1.30;;
16135;SDS011;8173;48.354;9.248;2023-03-23T03:00:19;2.13;;;1.77;;
16135;SDS011;8173;48.354;9.248;2023-03-23T03:02:47;1.83;;;1.73;;
16135;SDS011;8173;48.354;9.248;2023-03-23T03:05:21;1.45;;;1.35;;
16135;SDS011;8173;48.354;9.248;2023-03-23T03:08:00;1.10;;;1.00;;
16135;SDS011;8173;48.354;9.248;2023-03-23T03:10:36;0.80;;;0.80;;
16135;SDS011;8173;48.354;9.248;2023-03-23T03:13:10;3.15;;;1.40;;
16135;SDS011;8173;48.354;9.248;2023-03-23T03:15:43;1.70;;;1.52;;
16135;SDS011;8173;48.354;9.248;2023-03-23T03:18:15;1.80;;;1.45;;
16135;SDS011;8173;48.354;9.248;2023-03-23T03:20:48;1.63;;;1.52;;
16135;SDS011;8173;48.354;9.248;2023-03-23T03:23:18;1.63;;;1.52;;
16135;SDS011;8173;48.354;9.248;2023-03-23T03:25:48;1.50;;;1.40;;
16135;SDS011;8173;48.354;9.248;2023-03-23T03:28:16;1.60;;;1.40;;
16135;SDS011;8173;48.354;9.248;2023-03-23T03:30:47;1.90;;;1.70;;
16135;SDS011;8173;48.354;9.248;2023-03-23T03:33:19;1.25;;;1.10;;
16135;SDS011;8173;48.354;9.248;2023-03-23T03:35:45;9.25;;;1.80;;
16135;SDS011;8173;48.354;9.248;2023-03-23T03:38:14;1.38;;;1.15;;
16135;SDS011;8173;48.354;9.248;2023-03-23T03:40:41;2.25;;;1.20;;
16135;SDS011;8173;48.354;9.248;2023-03-23T03:43:08;1.95;;;1.65;;
16135;SDS011;8173;48.354;9.248;2023-03-23T03:45:35;1.10;;;1.00;;
16135;SDS011;8173;48.354;9.248;2023-03-23T03:48:01;2.30;;;1.92;;
16135;SDS011;8173;48.354;9.248;2023-03-23T03:50:28;1.52;;;1.40;;
16135;SDS011;8173;48.354;9.248;2023-03-23T03:52:57;1.42;;;1.30;;
16135;SDS011;8173;48.354;9.248;2023-03-23T03:55:24;3.15;;;1.48;;
16135;SDS011;8173;48.354;9.248;2023-03-23T03:57:53;3.83;;;1.80;;
16135;SDS011;8173;48.354;9.248;2023-03-23T04:00:20;1.63;;;1.33;;
16135;SDS011;8173;48.354;9.248;2023-03-23T04:02:48;1.33;;;1.23;;
16135;SDS011;8173;48.354;9.248;2023-03-23T04:05:19;3.67;;;1.63;;
16135;SDS011;8173;48.354;9.248;2023-03-23T04:07:46;1.90;;;1.75;;
16135;SDS011;8173;48.354;9.248;2023-03-23T04:10:15;1.77;;;1.63;;
16135;SDS011;8173;48.354;9.248;2023-03-23T04:12:44;2.10;;;1.30;;
16135;SDS011;8173;48.354;9.248;2023-03-23T04:15:11;1.90;;;1.27;;
16135;SDS011;8173;48.354;9.248;2023-03-23T04:17:38;1.42;;;1.33;;
16135;SDS011;8173;48.354;9.248;2023-03-23T04:20:06;1.88;;;1.40;;
16135;SDS011;8173;48.354;9.248;2023-03-23T04:22:42;2.88;;;1.80;;
16135;SDS011;8173;48.354;9.248;2023-03-23T04:25:10;3.20;;;1.77;;
16135;SDS011;8173;48.354;9.248;2023-03-23T04:27:40;1.70;;;1.60;;
16135;SDS011;8173;48.354;9.248;2023-03-23T04:30:12;10.75;;;1.63;;
16135;SDS011;8173;48.354;9.248;2023-03-23T04:32:39;6.93;;;1.90;;
16135;SDS011;8173;48.354;9.248;2023-03-23T04:35:07;1.85;;;1.63;;
16135;SDS011;8173;48.354;9.248;2023-03-23T04:37:36;1.58;;;1.40;;
16135;SDS011;8173;48.354;9.248;2023-03-23T04:40:04;2.70;;;1.88;;
16135;SDS011;8173;48.354;9.248;2023-03-23T04:42:35;3.70;;;1.50;;
16135;SDS011;8173;48.354;9.248;2023-03-23T04:45:05;2.25;;;1.42;;
16135;SDS011;8173;48.354;9.248;2023-03-23T04:47:34;1.63;;;1.20;;
16135;SDS011;8173;48.354;9.248;2023-03-23T04:50:05;1.45;;;1.35;;
16135;SDS011;8173;48.354;9.248;2023-03-23T04:52:34;1.67;;;1.58;;
16135;SDS011;8173;48.354;9.248;2023-03-23T04:55:02;1.30;;;1.20;;
16135;SDS011;8173;48.354;9.248;2023-03-23T04:57:30;3.22;;;1.70;;
16135;SDS011;8173;48.354;9.248;2023-03-23T04:59:58;1.70;;;1.52;;
16135;SDS011;8173;48.354;9.248;2023-03-23T05:02:26;1.35;;;1.08;;
16135;SDS011;8173;48.354;9.248;2023-03-23T05:04:55;2.35;;;1.33;;
16135;SDS011;8173;48.354;9.248;2023-03-23T05:07:21;1.05;;;1.00;;
16135;SDS011;8173;48.354;9.248;2023-03-23T05:09:48;0.60;;;0.60;;
16135;SDS011;8173;48.354;9.248;2023-03-23T05:12:15;0.80;;;0.73;;
16135;SDS011;8173;48.354;9.248;2023-03-23T05:14:42;1.40;;;1.30;;
16135;SDS011;8173;48.354;9.248;2023-03-23T05:17:09;1.45;;;1.08;;
16135;SDS011;8173;48.354;9.248;2023-03-23T05:19:37;2.35;;;1.42;;
16135;SDS011;8173;48.354;9.248;2023-03-23T05:22:06;2.17;;;1.45;;
16135;SDS011;8173;48.354;9.248;2023-03-23T05:24:32;4.07;;;1.80;;
16135;SDS011;8173;48.354;9.248;2023-03-23T05:26:59;2.13;;;1.90;;
16135;SDS011;8173;48.354;9.248;2023-03-23T05:29:28;4.13;;;1.98;;
16135;SDS011;8173;48.354;9.248;2023-03-23T05:31:56;2.92;;;2.13;;
16135;SDS011;8173;48.354;9.248;2023-03-23T05:34:24;1.45;;;1.35;;
16135;SDS011;8173;48.354;9.248;2023-03-23T05:36:52;6.05;;;2.88;;
16135;SDS011;8173;48.354;9.248;2023-03-23T05:39:20;2.45;;;1.75;;
16135;SDS011;8173;48.354;9.248;2023-03-23T05:41:47;2.63;;;2.22;;
16135;SDS011;8173;48.354;9.248;2023-03-23T05:44:14;3.03;;;2.00;;
16135;SDS011;8173;48.354;9.248;2023-03-23T05:46:40;2.75;;;1.70;;
16135;SDS011;8173;48.354;9.248;2023-03-23T05:49:08;2.78;;;1.77;;
16135;SDS011;8173;48.354;9.248;2023-03-23T05:51:35;3.13;;;2.65;;
16135;SDS011;8173;48.354;9.248;2023-03-23T05:54:03;3.75;;;3.20;;
16135;SDS011;8173;48.354;9.248;2023-03-23T05:56:30;3.90;;;3.40;;
16135;SDS011;8173;48.354;9.248;2023-03-23T05:58:56;3.88;;;3.17;;
16135;SDS011;8173;48.354;9.248;2023-03-23T06:01:23;3.53;;;1.98;;
16135;SDS011;8173;48.354;9.248;2023-03-23T06:03:50;4.68;;;2.53;;
16135;SDS011;8173;48.354;9.248;2023-03-23T06:06:19;2.35;;;1.90;;
16135;SDS011;8173;48.354;9.248;2023-03-23T06:08:46;5.70;;;3.10;;
16135;SDS011;8173;48.354;9.248;2023-03-23T06:11:14;3.53;;;3.03;;
16135;SDS011;8173;48.354;9.248;2023-03-23T06:13:41;3.45;;;2.70;;
16135;SDS011;8173;48.354;9.248;2023-03-23T06:16:09;2.70;;;2.47;;
16135;SDS011;8173;48.354;9.248;2023-03-23T06:18:36;5.70;;;3.00;;
16135;SDS011;8173;48.354;9.248;2023-03-23T06:21:05;5.18;;;2.25;;
16135;SDS011;8173;48.354;9.248;2023-03-23T06:23:32;3.53;;;2.25;;
16135;SDS011;8173;48.354;9.248;2023-03-23T06:26:00;5.07;;;2.33;;
16135;SDS011;8173;48.354;9.248;2023-03-23T06:28:31;3.10;;;2.40;;
16135;SDS011;8173;48.354;9.248;2023-03-23T06:30:59;3.60;;;2.38;;
16135;SDS011;8173;48.354;9.248;2023-03-23T06:33:26;2.63;;;2.20;;
16135;SDS011;8173;48.354;9.248;2023-03-23T06:35:53;3.42;;;2.22;;
16135;SDS011;8173;48.354;9.248;2023-03-23T06:38:21;3.17;;;2.22;;
16135;SDS011;8173;48.354;9.248;2023-03-23T06:40:47;2.58;;;2.22;;
16135;SDS011;8173;48.354;9.248;2023-03-23T06:43:15;2.13;;;1.50;;
16135;SDS011;8173;48.354;9.248;2023-03-23T06:45:43;4.07;;;1.42;;
16135;SDS011;8173;48.354;9.248;2023-03-23T06:48:10;1.80;;;1.63;;
16135;SDS011;8173;48.354;9.248;2023-03-23T06:50:37;5.18;;;2.58;;
16135;SDS011;8173;48.354;9.248;2023-03-23T06:53:04;1.33;;;1.23;;
16135;SDS011;8173;48.354;9.248;2023-03-23T06:55:30;2.35;;;2.03;;
16135;SDS011;8173;48.354;9.248;2023-03-23T06:57:57;3.63;;;1.65;;
16135;SDS011;8173;48.354;9.248;2023-03-23T07:00:26;2.92;;;2.22;;
16135;SDS011;8173;48.354;9.248;2023-03-23T07:02:55;2.47;;;1.58;;
16135;SDS011;8173;48.354;9.248;2023-03-23T07:05:22;1.40;;;1.25;;
16135;SDS011;8173;48.354;9.248;2023-03-23T07:07:49;1.60;;;1.00;;
16135;SDS011;8173;48.354;9.248;2023-03-23T07:10:16;1.90;;;1.17;;
16135;SDS011;8173;48.354;9.248;2023-03-23T07:12:42;1.30;;;1.20;;
16135;SDS011;8173;48.354;9.248;2023-03-23T07:15:09;1.25;;;1.15;;
16135;SDS011;8173;48.354;9.248;2023-03-23T07:17:37;2.03;;;1.58;;
16135;SDS011;8173;48.354;9.248;2023-03-23T07:20:06;1.80;;;1.35;;
16135;SDS011;8173;48.354;9.248;2023-03-23T07:22:34;1.83;;;1.23;;
16135;SDS011;8173;48.354;9.248;2023-03-23T07:25:00;1.77;;;1.10;;
16135;SDS011;8173;48.354;9.248;2023-03-23T07:27:27;1.55;;;1.45;;
16135;SDS011;8173;48.354;9.248;2023-03-23T07:29:54;1.27;;;1.17;;
16135;SDS011;8173;48.354;9.248;2023-03-23T07:32:23;4.30;;;1.50;;
16135;SDS011;8173;48.354;9.248;2023-03-23T07:34:50;1.63;;;1.52;;
16135;SDS011;8173;48.354;9.248;2023-03-23T07:37:18;1.83;;;1.38;;
16135;SDS011;8173;48.354;9.248;2023-03-23T07:39:44;1.23;;;1.05;;
16135;SDS011;8173;48.354;9.248;2023-03-23T07:42:11;4.85;;;1.55;;
16135;SDS011;8173;48.354;9.248;2023-03-23T07:44:38;1.65;;;1.33;;
16135;SDS011;8173;48.354;9.248;2023-03-23T07:47:05;1.52;;;1.40;;
16135;SDS011;8173;48.354;9.248;2023-03-23T07:49:32;1.98;;;1.58;;
16135;SDS011;8173;48.354;9.248;2023-03-23T07:51:58;1.80;;;1.42;;
16135;SDS011;8173;48.354;9.248;2023-03-23T07:54:29;1.83;;;1.50;;
16135;SDS011;8173;48.354;9.248;2023-03-23T07:56:56;1.73;;;1.63;;
16135;SDS011;8173;48.354;9.248;2023-03-23T07:59:22;1.17;;;1.08;;
16135;SDS011;8173;48.354;9.248;2023-03-23T08:01:49;1.23;;;0.95;;
16135;SDS011;8173;48.354;9.248;2023-03-23T08:04:16;10.85;;;1.35;;
16135;SDS011;8173;48.354;9.248;2023-03-23T08:06:43;1.27;;;1.17;;
16135;SDS011;8173;48.354;9.248;2023-03-23T08:09:10;1.23;;;1.08;;
16135;SDS011;8173;48.354;9.248;2023-03-23T08:11:39;0.60;;;0.60;;
16135;SDS011;8173;48.354;9.248;2023-03-23T08:14:06;0.82;;;0.82;;
16135;SDS011;8173;48.354;9.248;2023-03-23T08:16:32;1.40;;;1.05;;
16135;SDS011;8173;48.354;9.248;2023-03-23T08:19:00;0.70;;;0.70;;
16135;SDS011;8173;48.354;9.248;2023-03-23T08:21:29;0.60;;;0.60;;
16135;SDS011;8173;48.354;9.248;2023-03-23T08:23:56;0.70;;;0.70;;
16135;SDS011;8173;48.354;9.248;2023-03-23T08:26:23;0.70;;;0.70;;
16135;SDS011;8173;48.354;9.248;2023-03-23T08:28:51;0.50;;;0.50;;
16135;SDS011;8173;48.354;9.248;2023-03-23T08:31:18;0.43;;;0.43;;
16135;SDS011;8173;48.354;9.248;2023-03-23T08:33:45;0.50;;;0.50;;
16135;SDS011;8173;48.354;9.248;2023-03-23T08:36:12;0.98;;;0.98;;
16135;SDS011;8173;48.354;9.248;2023-03-23T08:38:39;2.00;;;1.77;;
16135;SDS011;8173;48.354;9.248;2023-03-23T08:41:06;0.60;;;0.60;;
16135;SDS011;8173;48.354;9.248;2023-03-23T08:43:34;0.50;;;0.50;;
16135;SDS011;8173;48.354;9.248;2023-03-23T08:46:04;0.50;;;0.50;;
16135;SDS011;8173;48.354;9.248;2023-03-23T08:48:34;0.60;;;0.60;;
16135;SDS011;8173;48.354;9.248;2023-03-23T08:51:01;0.80;;;0.80;;
16135;SDS011;8173;48.354;9.248;2023-03-23T08:53:28;0.50;;;0.50;;
16135;SDS011;8173;48.354;9.248;2023-03-23T08:55:56;0.50;;;0.50;;
16135;SDS011;8173;48.354;9.248;2023-03-23T08:58:28;0.63;;;0.60;;
16135;SDS011;8173;48.354;9.248;2023-03-23T09:00:55;0.40;;;0.40;;
16135;SDS011;8173;48.354;9.248;2023-03-23T09:03:23;0.50;;;0.50;;
16135;SDS011;8173;48.354;9.248;2023-03-23T09:05:50;0.50;;;0.50;;
16135;SDS011;8173;48.354;9.248;2023-03-23T09:08:18;0.60;;;0.60;;
16135;SDS011;8173;48.354;9.248;2023-03-23T09:10:46;0.70;;;0.70;;
16135;SDS011;8173;48.354;9.248;2023-03-23T09:13:14;0.50;;;0.50;;
16135;SDS011;8173;48.354;9.248;2023-03-23T09:15:41;0.68;;;0.68;;
16135;SDS011;8173;48.354;9.248;2023-03-23T09:18:08;0.60;;;0.60;;
16135;SDS011;8173;48.354;9.248;2023-03-23T09:20:36;1.15;;;1.05;;
16135;SDS011;8173;48.354;9.248;2023-03-23T09:23:03;0.50;;;0.50;;
16135;SDS011;8173;48.354;9.248;2023-03-23T09:25:30;1.00;;;0.90;;
16135;SDS011;8173;48.354;9.248;2023-03-23T09:27:58;0.68;;;0.65;;
16135;SDS011;8173;48.354;9.248;2023-03-23T09:30:26;1.02;;;0.90;;
16135;SDS011;8173;48.354;9.248;2023-03-23T09:32:54;0.70;;;0.70;;
16135;SDS011;8173;48.354;9.248;2023-03-23T09:35:21;0.73;;;0.73;;
16135;SDS011;8173;48.354;9.248;2023-03-23T09:37:51;1.50;;;0.98;;
16135;SDS011;8173;48.354;9.248;2023-03-23T09:40:19;0.70;;;0.70;;
16135;SDS011;8173;48.354;9.248;2023-03-23T09:42:51;0.70;;;0.70;;
16135;SDS011;8173;48.354;9.248;2023-03-23T09:45:28;0.60;;;0.60;;
16135;SDS011;8173;48.354;9.248;2023-03-23T09:51:08;0.73;;;0.73;;
16135;SDS011;8173;48.354;9.248;2023-03-23T09:53:44;0.80;;;0.80;;
16135;SDS011;8173;48.354;9.248;2023-03-23T09:56:14;0.52;;;0.52;;
16135;SDS011;8173;48.354;9.248;2023-03-23T09:58:45;0.70;;;0.70;;
16135;SDS011;8173;48.354;9.248;2023-03-23T10:01:16;0.50;;;0.50;;
16135;SDS011;8173;48.354;9.248;2023-03-23T10:03:46;0.50;;;0.50;;
16135;SDS011;8173;48.354;9.248;2023-03-23T10:06:14;0.60;;;0.60;;
16135;SDS011;8173;48.354;9.248;2023-03-23T10:08:45;0.65;;;0.65;;
16135;SDS011;8173;48.354;9.248;2023-03-23T10:11:16;1.50;;;1.48;;
16135;SDS011;8173;48.354;9.248;2023-03-23T10:13:57;0.70;;;0.70;;
16135;SDS011;8173;48.354;9.248;2023-03-23T10:16:33;0.60;;;0.60;;
16135;SDS011;8173;48.354;9.248;2023-03-23T10:19:04;0.65;;;0.65;;
16135;SDS011;8173;48.354;9.248;2023-03-23T10:21:37;0.70;;;0.70;;
16135;SDS011;8173;48.354;9.248;2023-03-23T10:24:12;0.70;;;0.70;;
16135;SDS011;8173;48.354;9.248;2023-03-23T10:26:46;0.50;;;0.50;;
16135;SDS011;8173;48.354;9.248;2023-03-23T10:29:19;0.70;;;0.70;;
16135;SDS011;8173;48.354;9.248;2023-03-23T10:31:50;0.60;;;0.60;;
16135;SDS011;8173;48.354;9.248;2023-03-23T10:34:21;0.60;;;0.60;;
16135;SDS011;8173;48.354;9.248;2023-03-23T10:36:59;0.82;;;0.82;;
16135;SDS011;8173;48.354;9.248;2023-03-23T10:39:33;0.50;;;0.50;;
16135;SDS011;8173;48.354;9.248;2023-03-23T10:42:08;0.50;;;0.50;;
16135;SDS011;8173;48.354;9.248;2023-03-23T10:44:35;0.60;;;0.60;;
16135;SDS011;8173;48.354;9.248;2023-03-23T10:47:04;0.80;;;0.80;;
16135;SDS011;8173;48.354;9.248;2023-03-23T10:49:34;0.50;;;0.50;;
16135;SDS011;8173;48.354;9.248;2023-03-23T10:52:09;0.60;;;0.60;;
16135;SDS011;8173;48.354;9.248;2023-03-23T10:54:49;1.08;;;1.02;;
16135;SDS011;8173;48.354;9.248;2023-03-23T10:57:20;1.00;;;1.00;;
16135;SDS011;8173;48.354;9.248;2023-03-23T10:59:49;0.60;;;0.60;;
16135;SDS011;8173;48.354;9.248;2023-03-23T11:02:16;0.60;;;0.60;;
16135;SDS011;8173;48.354;9.248;2023-03-23T11:04:46;0.65;;;0.65;;
16135;SDS011;8173;48.354;9.248;2023-03-23T11:07:24;0.60;;;0.60;;
16135;SDS011;8173;48.354;9.248;2023-03-23T11:09:56;0.50;;;0.50;;
16135;SDS011;8173;48.354;9.248;2023-03-23T11:12:32;0.50;;;0.50;;
16135;SDS011;8173;48.354;9.248;2023-03-23T11:15:03;0.93;;;0.82;;
16135;SDS011;8173;48.354;9.248;2023-03-23T11:17:41;0.95;;;0.90;;
16135;SDS011;8173;48.354;9.248;2023-03-23T11:20:12;0.60;;;0.60;;
16135;SDS011;8173;48.354;9.248;2023-03-23T11:22:40;0.75;;;0.75;;
16135;SDS011;8173;48.354;9.248;2023-03-23T11:25:12;0.82;;;0.80;;
16135;SDS011;8173;48.354;9.248;2023-03-23T11:27:39;0.90;;;0.90;;
16135;SDS011;8173;48.354;9.248;2023-03-23T11:30:09;0.60;;;0.60;;
16135;SDS011;8173;48.354;9.248;2023-03-23T11:32:42;0.65;;;0.65;;
16135;SDS011;8173;48.354;9.248;2023-03-23T11:35:15;0.75;;;0.75;;
16135;SDS011;8173;48.354;9.248;2023-03-23T11:37:44;4.47;;;2.20;;
16135;SDS011;8173;48.354;9.248;2023-03-23T11:40:16;0.70;;;0.70;;
16135;SDS011;8173;48.354;9.248;2023-03-23T11:42:46;0.75;;;0.75;;
16135;SDS011;8173;48.354;9.248;2023-03-23T11:45:17;0.50;;;0.50;;
16135;SDS011;8173;48.354;9.248;2023-03-23T11:47:50;0.50;;;0.50;;
16135;SDS011;8173;48.354;9.248;2023-03-23T11:50:23;0.60;;;0.60;;
16135;SDS011;8173;48.354;9.248;2023-03-23T11:52:53;1.05;;;0.90;;
16135;SDS011;8173;48.354;9.248;2023-03-23T11:55:28;0.80;;;0.80;;
16135;SDS011;8173;48.354;9.248;2023-03-23T11:58:00;0.68;;;0.68;;
16135;SDS011;8173;48.354;9.248;2023-03-23T12:00:40;6.07;;;2.67;;
16135;SDS011;8173;48.354;9.248;2023-03-23T12:03:25;0.80;;;0.80;;
16135;SDS011;8173;48.354;9.248;2023-03-23T12:05:59;0.70;;;0.70;;
16135;SDS011;8173;48.354;9.248;2023-03-23T12:08:38;1.88;;;1.23;;
16135;SDS011;8173;48.354;9.248;2023-03-23T12:11:17;0.90;;;0.90;;
16135;SDS011;8173;48.354;9.248;2023-03-23T12:13:56;0.82;;;0.82;;
16135;SDS011;8173;48.354;9.248;2023-03-23T12:16:36;0.98;;;0.93;;
16135;SDS011;8173;48.354;9.248;2023-03-23T12:19:13;0.70;;;0.70;;
16135;SDS011;8173;48.354;9.248;2023-03-23T12:21:50;0.50;;;0.50;;
16135;SDS011;8173;48.354;9.248;2023-03-23T12:24:28;0.80;;;0.80;;
16135;SDS011;8173;48.354;9.248;2023-03-23T12:27:05;0.60;;;0.60;;
16135;SDS011;8173;48.354;9.248;2023-03-23T12:29:44;0.60;;;0.60;;
16135;SDS011;8173;48.354;9.248;2023-03-23T12:32:56;1.55;;;1.00;;
16135;SDS011;8173;48.354;9.248;2023-03-23T12:35:36;2.05;;;1.30;;
16135;SDS011;8173;48.354;9.248;2023-03-23T12:38:24;0.80;;;0.80;;
16135;SDS011;8173;48.354;9.248;2023-03-23T12:41:03;0.52;;;0.52;;
16135;SDS011;8173;48.354;9.248;2023-03-23T12:43:38;0.80;;;0.80;;
16135;SDS011;8173;48.354;9.248;2023-03-23T12:46:19;0.65;;;0.65;;
16135;SDS011;8173;48.354;9.248;2023-03-23T12:48:59;0.90;;;0.90;;
16135;SDS011;8173;48.354;9.248;2023-03-23T12:51:31;1.25;;;1.10;;
16135;SDS011;8173;48.354;9.248;2023-03-23T12:54:03;0.50;;;0.50;;
16135;SDS011;8173;48.354;9.248;2023-03-23T12:56:38;1.27;;;1.17;;
16135;SDS011;8173;48.354;9.248;2023-03-23T12:59:15;0.60;;;0.60;;
16135;SDS011;8173;48.354;9.248;2023-03-23T13:01:50;0.82;;;0.82;;
16135;SDS011;8173;48.354;9.248;2023-03-23T13:04:20;0.60;;;0.60;;
16135;SDS011;8173;48.354;9.248;2023-03-23T13:06:49;1.23;;;1.13;;
16135;SDS011;8173;48.354;9.248;2023-03-23T13:09:22;0.60;;;0.60;;
16135;SDS011;8173;48.354;9.248;2023-03-23T13:11:53;0.90;;;0.90;;
16135;SDS011;8173;48.354;9.248;2023-03-23T13:14:26;0.73;;;0.73;;
16135;SDS011;8173;48.354;9.248;2023-03-23T13:17:14;1.08;;;0.80;;
16135;SDS011;8173;48.354;9.248;2023-03-23T13:19:55;0.50;;;0.50;;
16135;SDS011;8173;48.354;9.248;2023-03-23T13:22:35;0.50;;;0.50;;
16135;SDS011;8173;48.354;9.248;2023-03-23T13:25:08;0.45;;;0.45;;
16135;SDS011;8173;48.354;9.248;2023-03-23T13:27:40;0.57;;;0.57;;
16135;SDS011;8173;48.354;9.248;2023-03-23T13:30:17;0.50;;;0.50;;
16135;SDS011;8173;48.354;9.248;2023-03-23T13:32:49;0.80;;;0.80;;
16135;SDS011;8173;48.354;9.248;2023-03-23T13:35:17;0.50;;;0.50;;
16135;SDS011;8173;48.354;9.248;2023-03-23T13:37:47;0.45;;;0.45;;
16135;SDS011;8173;48.354;9.248;2023-03-23T13:40:19;0.60;;;0.60;;
16135;SDS011;8173;48.354;9.248;2023-03-23T13:42:52;0.60;;;0.60;;
16135;SDS011;8173;48.354;9.248;2023-03-23T13:45:23;0.55;;;0.55;;
16135;SDS011;8173;48.354;9.248;2023-03-23T13:48:03;0.50;;;0.50;;
16135;SDS011;8173;48.354;9.248;2023-03-23T13:50:42;0.50;;;0.50;;
16135;SDS011;8173;48.354;9.248;2023-03-23T13:53:12;0.73;;;0.73;;
16135;SDS011;8173;48.354;9.248;2023-03-23T13:55:41;0.85;;;0.75;;
16135;SDS011;8173;48.354;9.248;2023-03-23T13:58:10;0.65;;;0.60;;
16135;SDS011;8173;48.354;9.248;2023-03-23T14:00:46;0.50;;;0.50;;
16135;SDS011;8173;48.354;9.248;2023-03-23T14:03:16;0.60;;;0.60;;
16135;SDS011;8173;48.354;9.248;2023-03-23T14:05:50;0.50;;;0.50;;
16135;SDS011;8173;48.354;9.248;2023-03-23T14:08:36;0.70;;;0.70;;
16135;SDS011;8173;48.354;9.248;2023-03-23T14:11:10;0.40;;;0.40;;
16135;SDS011;8173;48.354;9.248;2023-03-23T14:13:41;0.40;;;0.40;;
16135;SDS011;8173;48.354;9.248;2023-03-23T14:16:15;0.50;;;0.50;;
16135;SDS011;8173;48.354;9.248;2023-03-23T14:18:52;0.55;;;0.55;;
16135;SDS011;8173;48.354;9.248;2023-03-23T14:21:30;0.70;;;0.70;;
16135;SDS011;8173;48.354;9.248;2023-03-23T14:23:59;0.60;;;0.60;;
16135;SDS011;8173;48.354;9.248;2023-03-23T14:26:27;0.80;;;0.80;;
16135;SDS011;8173;48.354;9.248;2023-03-23T14:28:54;0.50;;;0.50;;
16135;SDS011;8173;48.354;9.248;2023-03-23T14:31:23;0.50;;;0.50;;
16135;SDS011;8173;48.354;9.248;2023-03-23T14:33:52;0.43;;;0.43;;
16135;SDS011;8173;48.354;9.248;2023-03-23T14:36:20;0.40;;;0.40;;
16135;SDS011;8173;48.354;9.248;2023-03-23T14:38:54;0.60;;;0.60;;
16135;SDS011;8173;48.354;9.248;2023-03-23T14:41:27;0.70;;;0.70;;
16135;SDS011;8173;48.354;9.248;2023-03-23T14:43:55;1.05;;;1.00;;
16135;SDS011;8173;48.354;9.248;2023-03-23T14:46:24;0.50;;;0.50;;
16135;SDS011;8173;48.354;9.248;2023-03-23T14:48:51;0.60;;;0.60;;
16135;SDS011;8173;48.354;9.248;2023-03-23T14:51:18;0.40;;;0.40;;
16135;SDS011;8173;48.354;9.248;2023-03-23T14:53:46;0.50;;;0.50;;
16135;SDS011;8173;48.354;9.248;2023-03-23T14:56:16;0.50;;;0.50;;
16135;SDS011;8173;48.354;9.248;2023-03-23T14:58:44;0.60;;;0.60;;
16135;SDS011;8173;48.354;9.248;2023-03-23T15:01:13;0.77;;;0.77;;
16135;SDS011;8173;48.354;9.248;2023-03-23T15:03:46;1.55;;;1.23;;
16135;SDS011;8173;48.354;9.248;2023-03-23T15:06:18;1.15;;;1.15;;
16135;SDS011;8173;48.354;9.248;2023-03-23T15:08:49;0.65;;;0.65;;
16135;SDS011;8173;48.354;9.248;2023-03-23T15:11:22;1.08;;;0.98;;
16135;SDS011;8173;48.354;9.248;2023-03-23T15:13:53;1.60;;;1.40;;
16135;SDS011;8173;48.354;9.248;2023-03-23T15:16:22;1.50;;;1.40;;
16135;SDS011;8173;48.354;9.248;2023-03-23T15:18:53;1.58;;;1.48;;
16135;SDS011;8173;48.354;9.248;2023-03-23T15:21:23;1.50;;;1.38;;
16135;SDS011;8173;48.354;9.248;2023-03-23T15:23:52;0.70;;;0.70;;